Time;durP1;ratioP1;P1;durP2;ratioP2;P2;SDS_P1;SDS_P2;PMS_P1;PMS_P2;Temp;Humidity;BMP_temperature;BMP_pressure;BME280_temperature;BME280_humidity;BME280_pressure;Samples;Min_cycle;Max_cycle;Signal;HPM_P1;HPM_P2
2023/07/26 00:02:21;;;;;;;7.18;2.63;;;13.20;89.40;;;;;;5033984;28;20029;-43
2023/07/26 00:04:48;;;;;;;8.63;3.15;;;13.30;89.50;;;;;;5030151;28;20056;-43
2023/07/26 00:07:15;;;;;;;5.82;2.25;;;13.30;89.40;;;;;;5015066;28;20091;-44
2023/07/26 00:09:42;;;;;;;6.22;2.13;;;13.30;89.20;;;;;;5020595;28;20119;-43
2023/07/26 00:12:09;;;;;;;7.50;2.45;;;13.20;89.20;;;;;;5016295;28;20056;-44
2023/07/26 00:14:36;;;;;;;4.93;1.88;;;13.20;89.10;;;;;;5029974;28;20080;-44
2023/07/26 00:17:06;;;;;;;8.43;2.60;;;13.20;89.40;;;;;;5029337;28;20063;-46
2023/07/26 00:19:33;;;;;;;;;;;13.20;89.40;;;;;;5026707;28;20030;-43
2023/07/26 00:21:58;;;;;;;8.50;2.47;;;13.20;89.50;;;;;;5014885;28;20000;-44
2023/07/26 00:24:24;;;;;;;5.80;1.92;;;13.20;89.60;;;;;;5026841;28;20100;-46
2023/07/26 00:26:51;;;;;;;5.47;2.42;;;13.20;89.70;;;;;;5033343;28;20056;-44
2023/07/26 00:29:18;;;;;;;5.30;1.98;;;13.20;89.60;;;;;;5014604;28;20108;-44
2023/07/26 00:31:44;;;;;;;4.80;2.28;;;13.20;89.80;;;;;;5042380;28;20528;-44
2023/07/26 00:34:11;;;;;;;5.38;1.77;;;13.20;89.90;;;;;;5030907;28;20466;-43
2023/07/26 00:36:38;;;;;;;5.80;2.42;;;13.20;89.80;;;;;;5014226;28;20030;-44
2023/07/26 00:39:05;;;;;;;5.15;1.95;;;13.20;89.60;;;;;;5018156;28;20048;-44
2023/07/26 00:41:32;;;;;;;4.80;1.90;;;13.20;89.70;;;;;;5023578;28;20366;-43
2023/07/26 00:43:59;;;;;;;6.65;2.20;;;13.20;89.70;;;;;;5016450;28;20049;-43
2023/07/26 00:46:27;;;;;;;9.85;2.53;;;13.20;89.80;;;;;;5030767;28;20056;-44
2023/07/26 00:48:54;;;;;;;5.70;1.95;;;13.30;89.60;;;;;;5033671;28;20545;-45
2023/07/26 00:51:21;;;;;;;6.07;2.00;;;13.20;89.50;;;;;;5029560;28;20437;-43
2023/07/26 00:53:49;;;;;;;5.03;1.92;;;13.20;89.50;;;;;;5014132;28;20451;-43
2023/07/26 00:56:17;;;;;;;5.82;2.53;;;13.30;89.30;;;;;;5030467;28;20056;-43
2023/07/26 00:58:44;;;;;;;6.10;2.15;;;13.20;89.40;;;;;;5033928;28;20087;-44
2023/07/26 01:01:11;;;;;;;4.70;2.03;;;13.20;89.50;;;;;;5013178;28;20029;-43
2023/07/26 01:03:37;;;;;;;5.78;1.90;;;13.20;89.70;;;;;;5033811;28;20030;-45
2023/07/26 01:06:24;;;;;;;4.70;1.80;;;13.30;89.70;;;;;;5026518;28;20451;-44
2023/07/26 01:09:07;;;;;;;4.75;2.17;;;13.30;89.80;;;;;;5032734;28;20037;-45
2023/07/26 01:11:54;;;;;;;5.22;2.15;;;13.30;89.80;;;;;;5033242;28;20036;-44
2023/07/26 01:14:32;;;;;;;5.75;1.80;;;13.30;89.70;;;;;;5033614;28;20036;-44
2023/07/26 01:17:00;;;;;;;5.93;2.17;;;13.30;89.70;;;;;;5043864;28;20046;-44
2023/07/26 01:19:27;;;;;;;6.93;2.38;;;13.30;89.80;;;;;;5013596;28;20030;-45
2023/07/26 01:21:53;;;;;;;8.50;2.28;;;13.30;89.70;;;;;;5023654;28;20106;-45
2023/07/26 01:24:18;;;;;;;5.95;2.22;;;13.40;89.80;;;;;;5031679;28;20560;-44
2023/07/26 01:26:45;;;;;;;7.53;2.13;;;13.40;89.70;;;;;;5033382;28;20036;-43
2023/07/26 01:29:11;;;;;;;6.07;1.83;;;13.40;89.50;;;;;;5032179;28;20135;-43
2023/07/26 01:31:38;;;;;;;9.70;2.58;;;13.30;89.50;;;;;;5023170;28;20034;-43
2023/07/26 01:34:07;;;;;;;8.38;2.17;;;13.40;89.60;;;;;;5024952;28;20030;-44
2023/07/26 01:36:37;;;;;;;5.10;1.98;;;13.40;89.60;;;;;;5033072;28;20439;-44
2023/07/26 01:39:04;;;;;;;;;;;13.40;89.70;;;;;;5027629;28;20435;-43
2023/07/26 01:41:32;;;;;;;11.10;2.92;;;13.40;89.70;;;;;;5042097;28;19909;-43
2023/07/26 01:43:58;;;;;;;10.77;2.58;;;13.40;89.70;;;;;;5030462;28;20058;-43
2023/07/26 01:46:25;;;;;;;5.00;2.20;;;13.40;89.50;;;;;;5021861;28;20366;-44
2023/07/26 01:48:52;;;;;;;9.30;2.38;;;13.40;89.70;;;;;;5021976;28;20036;-44
2023/07/26 01:51:18;;;;;;;5.35;2.22;;;13.40;89.60;;;;;;5013190;28;20048;-43
2023/07/26 01:53:45;;;;;;;9.68;2.17;;;13.40;89.40;;;;;;5015136;28;20925;-44
2023/07/26 01:56:12;;;;;;;9.50;2.33;;;13.20;89.30;;;;;;5031184;28;20059;-44
2023/07/26 01:58:39;;;;;;;5.32;2.30;;;13.20;89.30;;;;;;5031893;28;20036;-44
2023/07/26 02:01:08;;;;;;;4.78;1.75;;;13.20;89.40;;;;;;5029426;28;20022;-44
2023/07/26 02:03:34;;;;;;;5.03;2.58;;;13.20;89.50;;;;;;5031944;28;20032;-44
2023/07/26 02:06:01;;;;;;;6.35;2.22;;;13.10;89.30;;;;;;5029247;28;20369;-44
2023/07/26 02:08:28;;;;;;;7.38;1.80;;;13.00;89.30;;;;;;5019471;28;20030;-44
2023/07/26 02:10:54;;;;;;;5.22;2.03;;;13.00;89.40;;;;;;5020024;28;20025;-43
2023/07/26 02:13:21;;;;;;;6.75;3.33;;;13.00;89.40;;;;;;5035985;28;20033;-45
2023/07/26 02:15:49;;;;;;;7.90;2.83;;;13.00;89.60;;;;;;5030985;28;20431;-44
2023/07/26 02:18:17;;;;;;;6.18;2.85;;;13.00;89.70;;;;;;5032528;28;20343;-43
2023/07/26 02:20:47;;;;;;;6.93;2.10;;;13.00;89.60;;;;;;5028631;28;20417;-44
2023/07/26 02:23:14;;;;;;;7.82;2.45;;;13.00;89.70;;;;;;5032452;28;20072;-43
2023/07/26 02:25:41;;;;;;;5.85;2.97;;;13.00;89.90;;;;;;5028342;28;20060;-43
2023/07/26 02:28:08;;;;;;;8.73;2.90;;;13.00;89.80;;;;;;5023045;28;20049;-43
2023/07/26 02:30:35;;;;;;;9.10;2.90;;;13.10;90.10;;;;;;5023373;28;20034;-43
2023/07/26 02:33:01;;;;;;;9.15;2.70;;;13.10;90.00;;;;;;5031548;28;20029;-43
2023/07/26 02:35:28;;;;;;;4.80;2.45;;;13.20;90.10;;;;;;5031777;28;20037;-43
2023/07/26 02:37:55;;;;;;;9.77;2.78;;;13.20;90.10;;;;;;5018166;28;20040;-43
2023/07/26 02:40:22;;;;;;;6.85;2.40;;;13.20;90.00;;;;;;5030564;28;20087;-43
2023/07/26 02:42:50;;;;;;;5.53;2.10;;;13.20;90.00;;;;;;5029776;28;20049;-43
2023/07/26 02:45:19;;;;;;;4.53;2.13;;;13.10;90.10;;;;;;5029006;28;20420;-43
2023/07/26 02:47:48;;;;;;;5.22;2.58;;;13.10;90.00;;;;;;5045986;28;20508;-43
2023/07/26 02:50:15;;;;;;;;;;;13.10;90.00;;;;;;5022235;28;20038;-43
2023/07/26 02:52:41;;;;;;;5.82;2.65;;;13.10;89.90;;;;;;5028006;28;19913;-43
2023/07/26 02:55:08;;;;;;;5.30;2.53;;;13.10;89.90;;;;;;5033353;28;20477;-43
2023/07/26 02:57:35;;;;;;;6.20;2.35;;;13.10;90.00;;;;;;5034942;28;20090;-44
2023/07/26 03:00:02;;;;;;;9.00;3.25;;;13.10;90.00;;;;;;5033714;28;20026;-45
2023/07/26 03:02:28;;;;;;;7.07;2.75;;;13.00;89.90;;;;;;5032776;28;20040;-46
2023/07/26 03:04:54;;;;;;;8.60;2.40;;;13.10;90.20;;;;;;5032395;28;20029;-45
2023/07/26 03:07:21;;;;;;;7.40;2.40;;;13.10;90.30;;;;;;5034828;28;20032;-45
2023/07/26 03:09:48;;;;;;;11.40;2.97;;;13.10;90.20;;;;;;5032588;28;20033;-46
2023/07/26 03:12:13;;;;;;;5.65;2.30;;;13.10;90.50;;;;;;5033699;28;20048;-45
2023/07/26 03:14:40;;;;;;;11.23;2.70;;;13.20;90.50;;;;;;5034458;28;20029;-45
2023/07/26 03:17:09;;;;;;;6.38;2.80;;;13.20;90.70;;;;;;5034382;28;20048;-45
2023/07/26 03:19:38;;;;;;;7.55;3.20;;;13.20;90.90;;;;;;5030374;28;20026;-45
2023/07/26 03:22:05;;;;;;;6.60;3.22;;;13.20;90.90;;;;;;5015975;28;20034;-46
2023/07/26 03:24:32;;;;;;;11.48;2.95;;;13.20;90.90;;;;;;5014975;28;20033;-45
2023/07/26 03:27:00;;;;;;;5.18;2.13;;;13.30;90.90;;;;;;5023496;28;20072;-45
2023/07/26 03:29:27;;;;;;;7.97;3.10;;;13.30;90.90;;;;;;5035297;28;20447;-45
2023/07/26 03:31:55;;;;;;;5.60;2.53;;;13.30;90.80;;;;;;5029984;28;20029;-46
2023/07/26 03:34:22;;;;;;;6.55;2.80;;;13.30;90.90;;;;;;5034181;28;20029;-46
2023/07/26 03:36:50;;;;;;;5.80;2.65;;;13.30;90.90;;;;;;5035555;28;20021;-45
2023/07/26 03:39:19;;;;;;;5.40;2.42;;;13.30;90.90;;;;;;5021737;28;20131;-45
2023/07/26 03:41:46;;;;;;;7.40;3.10;;;13.30;90.90;;;;;;5034837;28;20026;-45
2023/07/26 03:44:13;;;;;;;7.90;3.10;;;13.30;90.90;;;;;;5034875;28;20288;-45
2023/07/26 03:46:42;;;;;;;8.38;3.00;;;13.30;90.90;;;;;;5034359;28;20037;-46
2023/07/26 03:49:09;;;;;;;;;;;13.30;90.80;;;;;;5033801;28;20048;-45
2023/07/26 03:51:39;;;;;;;8.52;2.60;;;13.30;90.80;;;;;;5035055;28;19933;-45
2023/07/26 03:54:06;;;;;;;7.18;2.58;;;13.20;90.60;;;;;;5034837;28;20443;-46
2023/07/26 03:56:33;;;;;;;9.57;2.92;;;13.20;90.50;;;;;;5028751;28;20049;-45
2023/07/26 03:58:59;;;;;;;9.00;3.28;;;13.20;90.50;;;;;;5015195;28;20439;-47
2023/07/26 04:01:26;;;;;;;7.70;2.80;;;13.20;90.60;;;;;;5024237;28;20470;-45
2023/07/26 04:03:53;;;;;;;4.85;2.50;;;13.20;90.40;;;;;;5032935;28;20029;-45
2023/07/26 04:06:20;;;;;;;7.70;3.20;;;13.20;90.30;;;;;;5033855;28;20029;-45
2023/07/26 04:08:50;;;;;;;5.95;2.53;;;13.20;90.20;;;;;;5024138;28;20034;-45
2023/07/26 04:11:19;;;;;;;5.93;2.67;;;13.20;90.10;;;;;;5024196;28;20455;-46
2023/07/26 04:13:48;;;;;;;7.10;1.98;;;13.20;90.10;;;;;;5029758;28;20354;-46
2023/07/26 04:16:20;;;;;;;4.90;2.33;;;13.20;90.10;;;;;;5038436;28;20041;-47
2023/07/26 04:18:47;;;;;;;5.20;2.17;;;13.30;90.20;;;;;;5014569;28;20112;-45
2023/07/26 04:21:17;;;;;;;8.45;2.70;;;13.40;90.00;;;;;;5017475;28;20077;-45
2023/07/26 04:23:44;;;;;;;10.88;2.80;;;13.40;90.10;;;;;;5033041;28;20026;-46
2023/07/26 04:26:11;;;;;;;7.50;2.72;;;13.40;89.90;;;;;;5026859;28;20359;-45
2023/07/26 04:28:39;;;;;;;6.72;2.15;;;13.40;89.80;;;;;;5034192;28;20033;-45
2023/07/26 04:31:09;;;;;;;10.82;2.55;;;13.40;89.80;;;;;;5022890;28;20090;-45
2023/07/26 04:33:35;;;;;;;4.72;1.98;;;13.40;89.90;;;;;;5033206;28;20033;-45
2023/07/26 04:36:02;;;;;;;7.47;2.72;;;13.40;89.90;;;;;;5032876;28;20017;-46
2023/07/26 04:38:30;;;;;;;6.38;2.25;;;13.40;89.80;;;;;;5033007;28;20029;-46
2023/07/26 04:40:56;;;;;;;6.90;3.40;;;13.50;89.90;;;;;;5030903;28;20446;-46
2023/07/26 04:43:25;;;;;;;5.30;2.47;;;13.40;89.90;;;;;;5032130;28;20045;-46
2023/07/26 04:45:52;;;;;;;6.93;2.20;;;13.40;90.40;;;;;;5031947;28;20033;-46
2023/07/26 04:48:20;;;;;;;8.50;2.97;;;13.40;90.60;;;;;;5025449;28;20029;-45
2023/07/26 04:50:50;;;;;;;9.35;3.83;;;13.30;90.60;;;;;;5014489;28;20429;-48
2023/07/26 04:53:19;;;;;;;13.27;3.40;;;13.30;90.80;;;;;;5022630;28;20022;-49
2023/07/26 04:55:49;;;;;;;8.38;3.22;;;13.30;91.10;;;;;;5032957;28;20030;-51
2023/07/26 04:58:16;;;;;;;;;;;13.20;90.90;;;;;;5034088;28;20514;-50
2023/07/26 05:00:44;;;;;;;6.57;1.70;;;13.00;91.10;;;;;;5032867;28;19917;-50
2023/07/26 05:03:12;;;;;;;6.03;2.03;;;12.90;90.90;;;;;;5030101;28;20040;-52
2023/07/26 05:05:39;;;;;;;4.28;1.38;;;12.80;90.80;;;;;;5029208;28;20037;-49
2023/07/26 05:08:07;;;;;;;2.75;1.17;;;12.60;90.80;;;;;;5032378;28;20044;-49
2023/07/26 05:10:35;;;;;;;2.17;1.00;;;12.60;90.90;;;;;;5029909;28;20100;-52
2023/07/26 05:13:02;;;;;;;8.40;2.47;;;12.50;90.70;;;;;;5033069;28;20021;-51
2023/07/26 05:15:29;;;;;;;2.97;1.27;;;12.50;90.60;;;;;;5027333;28;20041;-51
2023/07/26 05:17:56;;;;;;;2.58;0.77;;;12.50;90.40;;;;;;5032127;28;20025;-51
2023/07/26 05:20:23;;;;;;;4.28;1.13;;;12.40;90.60;;;;;;5028971;28;20136;-49
2023/07/26 05:22:49;;;;;;;2.72;1.10;;;12.40;90.60;;;;;;5030241;28;20399;-49
2023/07/26 05:25:17;;;;;;;3.80;1.00;;;12.50;90.80;;;;;;5033241;28;20025;-50
2023/07/26 05:27:43;;;;;;;1.90;0.77;;;12.50;90.80;;;;;;5031763;28;20057;-48
2023/07/26 05:30:10;;;;;;;2.22;0.85;;;12.60;90.90;;;;;;5029644;28;20031;-48
2023/07/26 05:32:37;;;;;;;2.88;0.93;;;12.50;91.00;;;;;;5028762;28;20359;-48
2023/07/26 05:35:08;;;;;;;3.95;1.35;;;12.60;91.00;;;;;;5026493;28;20030;-48
2023/07/26 05:37:37;;;;;;;2.33;0.80;;;12.60;90.90;;;;;;5030012;28;20053;-48
2023/07/26 05:40:05;;;;;;;1.33;0.80;;;12.60;90.90;;;;;;5013244;28;20037;-49
2023/07/26 05:42:34;;;;;;;1.40;0.70;;;12.60;90.80;;;;;;5020792;28;20057;-50
2023/07/26 05:45:01;;;;;;;1.70;0.70;;;12.60;90.70;;;;;;5029833;28;20040;-49
2023/07/26 05:47:30;;;;;;;2.72;1.00;;;12.60;90.70;;;;;;5029214;28;20072;-49
2023/07/26 05:49:57;;;;;;;1.52;0.70;;;12.60;90.60;;;;;;5028893;28;20021;-50
2023/07/26 05:52:26;;;;;;;2.10;0.70;;;12.60;90.50;;;;;;5031688;28;20056;-49
2023/07/26 05:54:55;;;;;;;1.90;0.73;;;12.50;90.50;;;;;;5023523;28;20109;-47
2023/07/26 05:57:22;;;;;;;2.13;1.02;;;12.50;90.40;;;;;;5015173;28;20029;-47
2023/07/26 05:59:49;;;;;;;1.77;0.88;;;12.50;90.50;;;;;;5030866;28;20024;-48
2023/07/26 06:02:21;;;;;;;1.40;0.70;;;12.50;90.70;;;;;;5029158;28;20026;-48
2023/07/26 06:04:48;;;;;;;2.65;1.00;;;12.60;90.60;;;;;;5028959;28;20029;-48
2023/07/26 06:07:18;;;;;;;2.42;1.05;;;12.60;90.80;;;;;;5044971;28;20543;-49
2023/07/26 06:09:45;;;;;;;;;;;12.60;90.80;;;;;;5032275;28;20434;-47
2023/07/26 06:12:14;;;;;;;3.28;1.50;;;12.70;90.90;;;;;;5030581;28;20488;-48
2023/07/26 06:14:41;;;;;;;2.42;1.10;;;12.80;90.90;;;;;;5029031;28;20045;-47
2023/07/26 06:17:07;;;;;;;3.50;1.20;;;12.90;91.10;;;;;;5028783;28;20033;-47
2023/07/26 06:19:34;;;;;;;2.20;1.10;;;13.00;91.10;;;;;;5030611;28;20033;-49
2023/07/26 06:22:01;;;;;;;2.60;0.80;;;13.00;91.20;;;;;;5029587;28;20025;-48
2023/07/26 06:24:28;;;;;;;3.42;1.20;;;13.10;91.40;;;;;;5030695;28;20036;-47
2023/07/26 06:26:54;;;;;;;3.60;1.20;;;13.20;91.50;;;;;;5023616;28;20041;-48
2023/07/26 06:29:21;;;;;;;4.00;1.83;;;13.40;91.60;;;;;;5032614;28;20087;-48
2023/07/26 06:31:51;;;;;;;5.40;1.50;;;13.50;91.30;;;;;;5029800;28;20033;-48
2023/07/26 06:34:18;;;;;;;3.30;1.40;;;13.70;91.10;;;;;;5031665;28;20092;-47
2023/07/26 06:36:46;;;;;;;2.97;1.45;;;14.00;91.50;;;;;;5033162;28;20041;-49
2023/07/26 06:39:13;;;;;;;2.65;1.13;;;14.20;90.40;;;;;;5032850;28;20212;-48
2023/07/26 06:41:40;;;;;;;3.80;1.13;;;14.30;90.20;;;;;;5033191;28;20025;-49
2023/07/26 06:44:07;;;;;;;3.35;1.60;;;14.70;90.50;;;;;;5032563;28;20053;-48
2023/07/26 06:46:34;;;;;;;3.42;1.55;;;14.90;89.50;;;;;;5033755;28;20481;-48
2023/07/26 06:49:02;;;;;;;4.60;1.45;;;15.10;89.40;;;;;;5035873;28;20094;-52
2023/07/26 06:51:27;;;;;;;5.22;1.42;;;15.10;87.80;;;;;;5029236;28;20037;-48
2023/07/26 06:53:54;;;;;;;3.58;1.20;;;15.10;86.80;;;;;;5032056;28;20446;-51
2023/07/26 06:56:26;;;;;;;5.20;1.70;;;15.00;87.10;;;;;;5033623;28;20029;-47
2023/07/26 06:58:58;;;;;;;5.50;2.08;;;15.00;87.70;;;;;;5030603;28;20025;-48
2023/07/26 07:01:23;;;;;;;5.32;2.10;;;15.10;86.90;;;;;;5030791;28;20029;-52
2023/07/26 07:03:50;;;;;;;3.72;1.75;;;15.20;86.90;;;;;;5030795;28;20060;-47
2023/07/26 07:06:17;;;;;;;6.47;1.95;;;15.20;87.00;;;;;;5030975;28;20040;-47
2023/07/26 07:08:44;;;;;;;5.38;2.17;;;15.20;87.30;;;;;;5010303;28;20040;-49
2023/07/26 07:11:10;;;;;;;6.22;2.55;;;15.30;87.60;;;;;;5031186;28;20038;-47
2023/07/26 07:13:37;;;;;;;5.50;2.25;;;15.10;87.00;;;;;;5030839;28;20194;-48
2023/07/26 07:16:04;;;;;;;5.05;2.38;;;15.10;87.30;;;;;;5033332;28;20025;-47
2023/07/26 07:18:31;;;;;;;3.53;1.50;;;15.10;87.90;;;;;;5023566;28;20036;-49
2023/07/26 07:21:00;;;;;;;3.58;1.48;;;15.10;87.90;;;;;;5024642;28;20120;-49
2023/07/26 07:23:28;;;;;;;5.65;2.30;;;15.00;87.10;;;;;;5031813;28;20063;-51
2023/07/26 07:25:56;;;;;;;4.97;1.85;;;14.90;87.20;;;;;;5025956;28;20433;-48
2023/07/26 07:28:25;;;;;;;6.97;1.50;;;15.00;87.50;;;;;;5034802;28;20021;-50
2023/07/26 07:30:52;;;;;;;7.00;1.42;;;15.10;87.30;;;;;;5028885;28;20079;-47
2023/07/26 07:33:19;;;;;;;5.85;1.77;;;15.00;87.10;;;;;;5030465;28;20044;-50
2023/07/26 07:35:46;;;;;;;3.67;2.05;;;15.30;87.60;;;;;;5024928;28;20470;-49
2023/07/26 07:38:13;;;;;;;5.47;1.63;;;15.50;87.30;;;;;;5031589;28;20092;-48
2023/07/26 07:40:39;;;;;;;3.00;1.15;;;15.90;86.20;;;;;;5026026;28;20026;-50
2023/07/26 07:43:07;;;;;;;3.20;1.40;;;16.20;85.90;;;;;;5046556;28;20050;-49
2023/07/26 07:45:39;;;;;;;2.65;1.27;;;16.40;84.20;;;;;;5026027;28;20040;-49
2023/07/26 07:48:06;;;;;;;4.47;1.50;;;16.90;84.50;;;;;;5024914;28;20037;-50
2023/07/26 07:50:38;;;;;;;4.20;1.30;;;17.40;83.20;;;;;;5043865;28;20032;-52
2023/07/26 07:53:05;;;;;;;5.43;1.70;;;17.80;82.10;;;;;;5032520;28;20029;-55
2023/07/26 07:55:34;;;;;;;4.00;1.50;;;18.00;79.60;;;;;;5031800;28;20470;-52
2023/07/26 07:58:01;;;;;;;4.05;1.27;;;18.20;77.80;;;;;;5028128;28;20141;-49
2023/07/26 08:00:28;;;;;;;5.40;1.85;;;18.20;78.20;;;;;;5033352;28;20025;-51
2023/07/26 08:02:57;;;;;;;4.53;1.90;;;18.30;78.10;;;;;;5030849;28;20037;-53
2023/07/26 08:05:24;;;;;;;11.57;1.75;;;18.30;77.50;;;;;;5030933;28;20029;-49
2023/07/26 08:07:51;;;;;;;7.15;2.30;;;18.70;76.40;;;;;;5031142;28;20469;-50
2023/07/26 08:10:18;;;;;;;3.67;1.52;;;18.70;75.70;;;;;;5031827;28;20039;-51
2023/07/26 08:12:44;;;;;;;4.43;1.40;;;18.50;76.10;;;;;;5027175;28;20052;-52
2023/07/26 08:15:12;;;;;;;3.03;1.48;;;18.60;77.50;;;;;;5030265;28;20041;-51
2023/07/26 08:17:40;;;;;;;3.58;1.70;;;18.10;75.80;;;;;;5029706;28;20102;-54
2023/07/26 08:20:08;;;;;;;4.28;1.58;;;17.90;76.10;;;;;;5033751;28;20106;-50
2023/07/26 08:22:35;;;;;;;7.32;1.85;;;17.40;75.90;;;;;;5027650;28;20030;-53
2023/07/26 08:25:02;;;;;;;3.90;1.95;;;17.20;76.80;;;;;;5025467;28;20033;-52
2023/07/26 08:27:33;;;;;;;4.82;1.85;;;17.20;79.20;;;;;;5031367;28;20021;-49
2023/07/26 08:29:58;;;;;;;8.82;3.00;;;17.20;78.80;;;;;;5030404;28;20029;-54
2023/07/26 08:32:25;;;;;;;4.30;2.05;;;17.10;78.70;;;;;;5031793;28;20063;-51
2023/07/26 08:34:53;;;;;;;5.53;1.83;;;17.20;77.50;;;;;;5032504;28;20422;-50
2023/07/26 08:37:19;;;;;;;3.30;1.55;;;17.40;78.10;;;;;;5024194;28;20069;-51
2023/07/26 08:39:45;;;;;;;7.47;3.03;;;17.50;77.00;;;;;;5023999;28;20041;-49
2023/07/26 08:42:11;;;;;;;4.10;1.70;;;17.50;77.80;;;;;;5032360;28;20026;-49
2023/07/26 08:44:39;;;;;;;4.60;1.98;;;17.60;77.70;;;;;;5028852;28;20052;-49
2023/07/26 08:47:09;;;;;;;5.85;1.90;;;17.50;77.70;;;;;;5022229;28;20784;-47
2023/07/26 08:49:36;;;;;;;4.82;1.70;;;17.40;78.30;;;;;;5031064;28;20033;-46
2023/07/26 08:52:03;;;;;;;4.95;1.60;;;17.20;78.40;;;;;;5030222;28;20037;-49
2023/07/26 08:54:30;;;;;;;4.63;2.83;;;17.10;79.50;;;;;;5031245;28;20030;-50
2023/07/26 08:56:58;;;;;;;6.10;2.22;;;16.90;80.80;;;;;;5044131;28;20615;-46
2023/07/26 08:59:31;;;;;;;5.57;2.95;;;16.50;82.20;;;;;;5031427;28;20099;-47
2023/07/26 09:01:58;;;;;;;5.00;2.30;;;16.40;83.10;;;;;;5031493;28;20036;-47
2023/07/26 09:04:26;;;;;;;3.70;2.17;;;16.40;83.80;;;;;;5026313;28;20450;-47
2023/07/26 09:06:52;;;;;;;4.50;2.30;;;16.50;84.90;;;;;;5031486;28;20029;-48
2023/07/26 09:09:20;;;;;;;4.25;2.10;;;17.10;85.80;;;;;;5020354;28;20033;-49
2023/07/26 09:11:51;;;;;;;6.57;2.40;;;17.70;85.30;;;;;;5023900;28;20797;-48
2023/07/26 09:14:18;;;;;;;5.00;2.08;;;18.30;84.20;;;;;;5030204;28;22036;-51
2023/07/26 09:16:45;;;;;;;3.72;1.60;;;18.70;81.20;;;;;;5029355;28;20034;-51
2023/07/26 09:19:12;;;;;;;2.97;1.15;;;18.80;76.80;;;;;;5019613;28;20025;-50
2023/07/26 09:21:39;;;;;;;3.20;1.30;;;18.80;75.60;;;;;;5030874;28;20072;-50
2023/07/26 09:24:06;;;;;;;2.13;1.17;;;18.80;75.60;;;;;;5032288;28;20791;-49
2023/07/26 09:26:40;;;;;;;5.25;1.33;;;18.50;74.60;;;;;;5029823;28;20036;-50
2023/07/26 09:29:16;;;;;;;2.88;1.35;;;18.30;74.40;;;;;;5023069;28;20025;-50
2023/07/26 09:34:06;;;;;;;4.35;1.30;;;17.80;74.80;;;;;;5125326;27;20118;-51
2023/07/26 09:36:43;;;;;;;6.78;1.88;;;17.60;75.80;;;;;;5096498;28;20612;-49
2023/07/26 09:39:13;;;;;;;5.35;1.88;;;17.50;76.10;;;;;;5102625;28;20432;-49
2023/07/26 09:41:40;;;;;;;4.32;1.98;;;17.60;77.20;;;;;;5108955;28;20024;-50
2023/07/26 09:44:17;;;;;;;4.35;2.17;;;17.70;77.50;;;;;;5107235;28;20050;-51
2023/07/26 09:46:55;;;;;;;4.28;2.00;;;17.90;77.00;;;;;;5107718;28;20051;-54
2023/07/26 09:49:26;;;;;;;3.53;1.80;;;17.60;75.90;;;;;;5125333;28;20019;-49
2023/07/26 09:51:57;;;;;;;3.83;1.63;;;17.40;75.60;;;;;;5127698;28;20031;-52
2023/07/26 09:54:33;;;;;;;3.00;1.60;;;17.10;75.90;;;;;;5109514;28;20427;-49
2023/07/26 09:57:01;;;;;;;3.60;1.50;;;17.20;75.70;;;;;;5111440;28;20020;-52
2023/07/26 09:59:29;;;;;;;4.15;1.92;;;17.30;76.10;;;;;;5111663;28;20034;-48
2023/07/26 10:02:01;;;;;;;5.68;2.00;;;17.50;77.40;;;;;;5113280;28;20028;-51
2023/07/26 10:04:45;;;;;;;3.95;2.28;;;17.50;77.40;;;;;;5109126;28;20068;-47
2023/07/26 10:07:13;;;;;;;3.63;1.63;;;17.50;78.70;;;;;;5120327;28;20121;-48
2023/07/26 10:09:44;;;;;;;5.03;2.17;;;17.70;78.80;;;;;;5105154;28;20056;-47
2023/07/26 10:12:14;;;;;;;3.63;2.10;;;17.80;78.20;;;;;;5089348;28;20177;-48
2023/07/26 10:14:42;;;;;;;4.72;2.08;;;17.70;76.80;;;;;;5106504;28;20027;-46
2023/07/26 10:17:12;;;;;;;3.47;1.70;;;17.60;77.50;;;;;;5108345;28;20031;-45
2023/07/26 10:19:46;;;;;;;5.07;1.75;;;17.30;77.70;;;;;;5107975;28;20023;-45
2023/07/26 10:22:14;;;;;;;5.07;2.10;;;16.90;79.20;;;;;;5106245;28;20067;-46
2023/07/26 10:24:44;;;;;;;5.07;1.92;;;16.50;80.20;;;;;;5105963;28;20064;-45
2023/07/26 10:27:12;;;;;;;3.13;1.95;;;16.40;81.80;;;;;;5104043;28;20043;-45
2023/07/26 10:29:41;;;;;;;3.45;1.98;;;16.30;82.00;;;;;;5107378;28;20460;-45
2023/07/26 10:32:11;;;;;;;4.13;1.90;;;16.30;82.80;;;;;;5107233;28;20040;-47
2023/07/26 10:34:37;;;;;;;3.95;2.28;;;16.50;83.30;;;;;;5107305;28;20020;-48
2023/07/26 10:37:21;;;;;;;3.40;1.75;;;17.10;84.00;;;;;;5105446;28;20082;-47
2023/07/26 10:39:49;;;;;;;4.07;2.45;;;17.70;83.20;;;;;;5107231;28;20081;-46
2023/07/26 10:42:33;;;;;;;4.63;2.70;;;18.10;83.90;;;;;;5108020;28;20133;-49
2023/07/26 10:45:03;;;;;;;3.33;1.83;;;18.50;80.90;;;;;;5095363;28;20057;-48
2023/07/26 10:47:30;;;;;;;4.00;2.13;;;18.50;78.20;;;;;;5072271;28;20020;-51
2023/07/26 10:50:12;;;;;;;3.85;2.08;;;18.80;78.30;;;;;;5092714;28;20525;-50
2023/07/26 10:52:41;;;;;;;3.42;1.88;;;18.80;74.40;;;;;;5082058;28;20042;-52
2023/07/26 11:14:50;;;;;;;3.00;1.60;;;18.20;71.60;;;;;;5026731;28;20044;-49
2023/07/26 11:17:17;;;;;;;2.88;1.58;;;18.30;70.40;;;;;;5032417;28;20025;-51
2023/07/26 11:19:50;;;;;;;4.28;1.88;;;18.50;71.60;;;;;;5034246;28;20028;-49
2023/07/26 11:22:21;;;;;;;4.07;1.92;;;18.90;69.40;;;;;;5031524;28;20029;-50
2023/07/26 11:24:49;;;;;;;3.70;1.90;;;18.90;68.50;;;;;;5034204;28;20108;-50
2023/07/26 11:27:15;;;;;;;3.17;1.42;;;19.10;68.80;;;;;;5024541;28;20025;-53
2023/07/26 11:33:09;;;;;;;2.55;1.55;;;18.70;67.40;;;;;;4238535;27;25660653;-54
2023/07/26 11:35:41;;;;;;;2.95;1.58;;;18.70;66.20;;;;;;5138782;27;20027;-53
2023/07/26 11:38:07;;;;;;;2.13;1.35;;;18.70;68.40;;;;;;5150310;27;20027;-54
2023/07/26 11:40:42;;;;;;;2.17;0.98;;;19.30;69.70;;;;;;5132841;27;20023;-55
2023/07/26 11:43:12;;;;;;;4.38;1.77;;;19.30;66.80;;;;;;5146879;27;20105;-52
2023/07/26 11:45:42;;;;;;;3.47;1.13;;;18.80;67.30;;;;;;5150411;27;20027;-51
2023/07/26 11:48:14;;;;;;;2.80;1.30;;;18.70;67.50;;;;;;5151572;27;20015;-53
2023/07/26 11:50:43;;;;;;;4.57;1.58;;;18.60;67.80;;;;;;5145470;27;20019;-53
2023/07/26 11:53:12;;;;;;;3.20;1.63;;;18.60;68.20;;;;;;5143908;27;20080;-53
2023/07/26 11:55:41;;;;;;;2.40;1.40;;;18.70;68.50;;;;;;5138039;27;20118;-53
2023/07/26 11:58:12;;;;;;;2.70;1.52;;;18.70;69.80;;;;;;5146503;27;20023;-52
2023/07/26 12:00:46;;;;;;;3.05;1.40;;;18.60;70.40;;;;;;5128817;27;20038;-49
2023/07/26 12:03:12;;;;;;;2.40;1.30;;;18.70;69.80;;;;;;5110184;27;20455;-51
2023/07/26 12:05:44;;;;;;;3.42;1.38;;;18.40;69.00;;;;;;5137511;27;20075;-53
2023/07/26 12:08:12;;;;;;;3.17;1.50;;;18.30;69.20;;;;;;5147227;27;20034;-52
2023/07/26 12:10:45;;;;;;;2.08;1.30;;;18.60;70.50;;;;;;5147655;27;20029;-55
2023/07/26 12:13:23;;;;;;;3.35;1.63;;;19.30;72.10;;;;;;5146364;27;20029;-48
2023/07/26 12:15:53;;;;;;;2.45;1.48;;;19.70;69.10;;;;;;5147076;27;20026;-51
2023/07/26 12:18:24;;;;;;;3.00;1.35;;;19.80;67.20;;;;;;5150347;27;20470;-48
2023/07/26 12:21:04;;;;;;;5.43;1.27;;;19.60;68.10;;;;;;5143890;27;20397;-50
2023/07/26 12:26:53;;;;;;;2.63;1.20;;;19.90;66.20;;;;;;5129690;27;20030;-51
2023/07/26 12:29:28;;;;;;;2.75;1.42;;;20.10;66.20;;;;;;5142963;27;20056;-51
2023/07/26 12:32:02;;;;;;;3.38;2.00;;;20.10;64.90;;;;;;5148870;27;20035;-49
2023/07/26 12:34:40;;;;;;;3.30;1.33;;;20.00;63.90;;;;;;5127514;27;20023;-52
2023/07/26 12:37:08;;;;;;;2.45;1.33;;;19.50;65.20;;;;;;5136883;27;20035;-49
2023/07/26 12:39:38;;;;;;;3.03;1.23;;;19.60;67.00;;;;;;5117302;27;20069;-51
2023/07/26 12:42:06;;;;;;;6.40;1.42;;;19.50;66.50;;;;;;5115336;27;20039;-48
2023/07/26 12:44:33;;;;;;;3.03;1.50;;;19.40;67.00;;;;;;5122171;27;20023;-48
2023/07/26 12:47:00;;;;;;;3.33;1.50;;;19.30;66.90;;;;;;5128385;27;20024;-48
2023/07/26 12:49:27;;;;;;;3.83;1.45;;;19.30;67.10;;;;;;5126488;27;20412;-50
2023/07/26 12:51:54;;;;;;;3.33;1.35;;;19.20;66.20;;;;;;5130278;27;20055;-49
2023/07/26 12:54:22;;;;;;;3.45;1.50;;;18.80;67.60;;;;;;5129117;27;20054;-47
2023/07/26 12:56:47;;;;;;;4.10;1.67;;;18.80;69.50;;;;;;5123757;27;20114;-52
2023/07/26 12:59:14;;;;;;;3.35;1.77;;;18.70;69.00;;;;;;5127481;27;20135;-48
2023/07/26 13:01:40;;;;;;;2.97;1.42;;;18.60;69.00;;;;;;5117266;27;20026;-49
2023/07/26 13:04:08;;;;;;;3.55;1.50;;;18.50;68.90;;;;;;5130379;27;20066;-48
2023/07/26 13:06:35;;;;;;;2.97;1.50;;;18.40;69.00;;;;;;5133656;27;20038;-52
2023/07/26 13:09:10;;;;;;;3.47;1.17;;;18.40;68.70;;;;;;5124905;27;20450;-51
2023/07/26 13:11:36;;;;;;;3.22;1.45;;;18.60;69.90;;;;;;5114044;27;20114;-47
2023/07/26 13:14:02;;;;;;;2.92;1.40;;;18.80;68.00;;;;;;5128208;27;20112;-47
2023/07/26 13:16:31;;;;;;;1.80;0.88;;;19.00;69.30;;;;;;5124381;27;20362;-48
2023/07/26 13:19:00;;;;;;;3.50;1.52;;;19.40;66.20;;;;;;5124167;27;20111;-51
2023/07/26 13:21:27;;;;;;;3.83;1.20;;;19.50;66.20;;;;;;5132170;27;20316;-49
2023/07/26 13:23:54;;;;;;;3.00;1.30;;;19.80;66.80;;;;;;5111349;27;20023;-51